Airfield :
LOGIN :

Register | Disclaimer

   EN    FR    IT 

 










Legend :    VFR   Marginal VFR   IFR   Intensive IFR   Very Intensive IFR
Visi :
Ceiling :
>= 8 km
>= 3000ft
5 to 8 km
1000 to 3000 ft
1500m to 5 km
500 to 1000 ft
800 to 1500m
200 to 500 ft
< 800m
< 200 ft
Symbols :   Thunderstorms  Fog  Heavy snow  Heavy precipitations  Wind > 20 kt
SIGMETs :     Misc.  Thunderstorms  Icing  Turbulence  Mountain Waves  Volcanic Ashes







- Airport Elevation : 580 ft
- Download approach charts


LFOA - Avord

CURRENT METAR :
  • 210630Z AUTO VRB02KT CAVOK 14/11 Q1016 NOSIG

EXPIRED METARs :
  • 210600Z AUTO VRB03KT 8000 NSC 13/11 Q1016 NOSIG
  • 210530Z AUTO VRB01KT 4500 BR NSC 11/11 Q1016 BECMG 6000 NSW
  • 210500Z AUTO 34002KT 2800 BR NSC 11/10 Q1016 BECMG 6000 NSW
  • 210430Z AUTO 34002KT 4000 BR FEW038 SCT044 BKN078 11/11 Q1016
  • 210400Z AUTO 00000KT 6000 BKN040 BKN047 OVC084 11/11 Q1015

TAF AMD TAF LFOA
Valid from the 21 at 04:00 until the 22 at 03:00 UTC


210420Z 2104/2203 VRB01KT 6000 BKN040 BKN050
TEMPO 2104/2106 3000 BR
TEMPO 2111/2120 30010G20KT 4000 -SHRA BKN035TCU
PROB40
TEMPO 2117/2120 07010G20KT 3000 TSRA SCT010 BKN020CB
TEMPO 2123/2203 3000 BR
PROB30 2200/2203 0800 FG
No reported NOTAMs for that airfield.



MET'MAP, your aeronautical weather chart ! - Copyright ORBIFLY December 2007 - Disclaimer

ORBIFLY MET'MAP TEAM :

Programming & Development : Alexandra Zaïnal
Concept & Development : Baudouin d'Aumeries
Co-Development & Prog : Marc-Olivier Méhu
Technical & hardware support : Manuel Goepfert

Contact : metmap@orbifly.com




SOURCES & CREDITS :

   NOAA